createdAt,value
2023-02-23T00:01:53.539Z,8.40
2023-02-23T00:04:20.503Z,9.10
2023-02-23T00:06:47.346Z,11.63
2023-02-23T00:09:24.767Z,4.05
2023-02-23T00:11:56.410Z,5.97
2023-02-23T00:14:28.215Z,7.95
2023-02-23T00:16:56.142Z,5.43
2023-02-23T00:19:24.927Z,3.45
2023-02-23T00:21:53.242Z,4.90
2023-02-23T00:24:20.904Z,9.52
2023-02-23T00:26:51.263Z,5.63
2023-02-23T00:29:22.190Z,6.57
2023-02-23T00:31:50.781Z,6.68
2023-02-23T00:34:23.821Z,7.65
2023-02-23T00:36:54.340Z,8.45
2023-02-23T00:39:23.843Z,6.63
2023-02-23T00:41:52.557Z,11.82
2023-02-23T00:44:21.999Z,4.43
2023-02-23T00:46:52.251Z,5.30
2023-02-23T00:49:20.877Z,10.60
2023-02-23T00:51:48.102Z,3.67
2023-02-23T00:54:16.636Z,15.38
2023-02-23T00:56:44.937Z,5.65
2023-02-23T00:59:12.473Z,1.98
2023-02-23T01:01:41.932Z,5.25
2023-02-23T01:04:09.344Z,5.72
2023-02-23T01:06:37.836Z,5.80
2023-02-23T01:09:10.354Z,8.00
2023-02-23T01:11:38.630Z,7.07
2023-02-23T01:14:05.527Z,6.35
2023-02-23T01:16:34.044Z,3.67
2023-02-23T01:19:04.821Z,6.72
2023-02-23T01:21:34.988Z,10.20
2023-02-23T01:24:02.415Z,11.82
2023-02-23T01:26:34.676Z,7.70
2023-02-23T01:29:09.016Z,4.93
2023-02-23T01:31:37.068Z,6.40
2023-02-23T01:34:06.043Z,9.60
2023-02-23T01:36:39.087Z,10.50
2023-02-23T01:39:08.613Z,8.38
2023-02-23T01:41:36.785Z,3.05
2023-02-23T01:44:28.380Z,7.50
2023-02-23T01:46:56.082Z,7.15
2023-02-23T01:49:30.098Z,8.65
2023-02-23T01:52:13.520Z,5.03
2023-02-23T01:54:50.679Z,2.95
2023-02-23T01:57:19.083Z,4.03
2023-02-23T01:59:49.271Z,10.32
2023-02-23T02:02:18.246Z,7.05
2023-02-23T02:04:45.378Z,6.15
2023-02-23T02:07:23.574Z,8.18
2023-02-23T02:10:12.016Z,5.47
2023-02-23T02:12:47.556Z,8.98
2023-02-23T02:15:17.925Z,10.20
2023-02-23T02:18:03.519Z,8.82
2023-02-23T02:21:11.649Z,5.63
2023-02-23T02:23:59.413Z,5.32
2023-02-23T02:26:49.562Z,5.10
2023-02-23T02:29:51.867Z,5.63
2023-02-23T02:32:28.616Z,7.55
2023-02-23T02:35:23.176Z,7.68
2023-02-23T02:38:16.648Z,9.00
2023-02-23T02:40:53.951Z,8.27
2023-02-23T02:43:26.643Z,4.90
2023-02-23T02:45:59.855Z,4.53
2023-02-23T02:48:38.806Z,9.48
2023-02-23T02:51:17.586Z,8.20
2023-02-23T02:54:11.330Z,8.38
2023-02-23T02:56:41.884Z,9.13
2023-02-23T02:59:33.432Z,4.60
2023-02-23T03:02:18.958Z,8.55
2023-02-23T03:05:04.718Z,9.20
2023-02-23T03:07:55.566Z,13.65
2023-02-23T03:10:55.704Z,9.52
2023-02-23T03:13:59.690Z,5.07
2023-02-23T03:17:05.019Z,8.10
2023-02-23T03:20:01.589Z,8.10
2023-02-23T03:22:51.039Z,7.95
2023-02-23T03:25:48.794Z,7.72
2023-02-23T03:28:38.938Z,6.55
2023-02-23T03:31:30.520Z,5.80
2023-02-23T03:34:32.843Z,10.50
2023-02-23T03:37:31.288Z,6.80
2023-02-23T03:40:44.483Z,4.85
2023-02-23T03:43:37.639Z,3.83
2023-02-23T03:46:25.688Z,5.55
2023-02-23T03:49:11.990Z,5.60
2023-02-23T03:51:59.231Z,5.55
2023-02-23T03:54:52.350Z,7.70
2023-02-23T03:57:39.334Z,5.25
2023-02-23T04:00:28.325Z,3.72
2023-02-23T04:03:15.154Z,8.55
2023-02-23T04:06:01.209Z,5.93
2023-02-23T04:08:55.704Z,3.90
2023-02-23T04:12:16.613Z,10.63
2023-02-23T04:14:49.093Z,11.18
2023-02-23T04:17:16.856Z,5.13
2023-02-23T04:19:53.681Z,4.78
2023-02-23T04:22:21.584Z,9.63
2023-02-23T04:24:48.791Z,5.28
2023-02-23T04:27:15.858Z,7.07
2023-02-23T04:29:43.661Z,10.68
2023-02-23T04:32:14.077Z,7.55
2023-02-23T04:34:41.174Z,6.82
2023-02-23T04:37:08.092Z,6.20
2023-02-23T04:39:34.925Z,15.85
2023-02-23T04:42:02.289Z,7.22
2023-02-23T04:44:29.336Z,4.38
2023-02-23T04:46:57.420Z,11.32
2023-02-23T04:49:24.340Z,10.85
2023-02-23T04:51:51.288Z,13.38
2023-02-23T04:54:18.405Z,5.30
2023-02-23T04:56:45.143Z,10.02
2023-02-23T04:59:12.703Z,10.50
2023-02-23T05:01:39.589Z,15.25
2023-02-23T05:04:06.402Z,11.23
2023-02-23T05:06:33.537Z,9.40
2023-02-23T05:09:00.304Z,7.43
2023-02-23T05:11:27.904Z,8.55
2023-02-23T05:13:54.830Z,12.43
2023-02-23T05:16:21.923Z,3.50
2023-02-23T05:18:48.730Z,9.40
2023-02-23T05:21:15.575Z,3.00
2023-02-23T05:23:42.654Z,6.20
2023-02-23T05:26:11.696Z,4.35
2023-02-23T05:28:40.147Z,5.60
2023-02-23T05:31:07.660Z,7.70
2023-02-23T05:33:42.321Z,7.00
2023-02-23T05:36:11.642Z,9.48
2023-02-23T05:38:39.670Z,4.63
2023-02-23T05:41:11.867Z,7.85
2023-02-23T05:43:39.617Z,7.65
2023-02-23T05:46:11.200Z,8.43
2023-02-23T05:48:38.315Z,8.35
2023-02-23T05:51:07.192Z,8.63
2023-02-23T05:53:34.125Z,6.28
2023-02-23T05:56:02.019Z,10.98
2023-02-23T05:58:29.088Z,4.75
2023-02-23T06:00:56.033Z,5.07
2023-02-23T06:03:23.285Z,7.38
2023-02-23T06:05:54.683Z,11.88
2023-02-23T06:08:21.659Z,7.80
2023-02-23T06:10:48.471Z,7.95
2023-02-23T06:13:15.299Z,6.88
2023-02-23T06:15:42.151Z,4.57
2023-02-23T06:18:09.194Z,10.85
2023-02-23T06:20:38.175Z,2.55
2023-02-23T06:25:34.670Z,5.75
2023-02-23T06:28:01.425Z,6.68
2023-02-23T06:30:28.171Z,3.97
2023-02-23T06:32:55.146Z,4.03
2023-02-23T06:35:22.150Z,10.75
2023-02-23T06:37:49.117Z,6.28
2023-02-23T06:40:16.189Z,6.68
2023-02-23T06:42:43.063Z,8.00
2023-02-23T06:45:10.681Z,8.07
2023-02-23T06:47:37.538Z,4.10
2023-02-23T06:50:04.844Z,14.23
2023-02-23T06:52:31.765Z,8.02
2023-02-23T06:54:58.864Z,12.48
2023-02-23T06:57:25.928Z,6.75
2023-02-23T06:59:53.497Z,9.45
2023-02-23T07:02:20.358Z,8.35
2023-02-23T07:04:47.492Z,5.22
2023-02-23T07:07:14.728Z,7.32
2023-02-23T07:09:43.018Z,8.38
2023-02-23T07:12:10.683Z,8.45
2023-02-23T07:14:37.815Z,7.88
2023-02-23T07:17:05.051Z,8.15
2023-02-23T07:19:32.858Z,9.10
2023-02-23T07:21:59.680Z,6.05
2023-02-23T07:24:28.294Z,10.85
2023-02-23T07:26:55.331Z,10.15
2023-02-23T07:29:24.133Z,12.10
2023-02-23T07:31:51.119Z,11.23
2023-02-23T07:34:18.071Z,10.07
2023-02-23T07:36:45.146Z,6.43
2023-02-23T07:39:12.050Z,6.78
2023-02-23T07:41:39.423Z,11.55
2023-02-23T07:44:17.367Z,3.38
2023-02-23T07:46:46.466Z,11.10
2023-02-23T07:49:14.024Z,11.05
2023-02-23T07:51:41.030Z,10.23
2023-02-23T07:54:07.794Z,7.05
2023-02-23T07:56:35.527Z,9.77
2023-02-23T07:59:02.840Z,12.18
2023-02-23T08:01:29.979Z,11.23
2023-02-23T08:03:56.882Z,8.18
2023-02-23T08:06:23.863Z,8.73
2023-02-23T08:08:50.893Z,14.30
2023-02-23T08:11:17.901Z,9.85
2023-02-23T08:13:45.010Z,9.73
2023-02-23T08:16:12.652Z,9.52
2023-02-23T08:18:39.691Z,5.03
2023-02-23T08:21:06.647Z,6.97
2023-02-23T08:23:34.540Z,6.85
2023-02-23T08:26:02.103Z,12.02
2023-02-23T08:28:29.653Z,5.78
2023-02-23T08:30:56.721Z,5.85
2023-02-23T08:33:23.613Z,5.03
2023-02-23T08:35:50.556Z,10.38
2023-02-23T08:38:18.415Z,2.58
2023-02-23T08:40:45.361Z,5.32
2023-02-23T08:43:12.169Z,8.15
2023-02-23T08:45:39.712Z,9.60
2023-02-23T08:48:07.879Z,4.72
2023-02-23T08:50:34.974Z,6.72
2023-02-23T08:53:01.782Z,8.00
2023-02-23T08:55:28.694Z,6.75
2023-02-23T08:57:55.595Z,6.60
2023-02-23T09:00:22.876Z,5.57
2023-02-23T09:02:49.825Z,9.05
2023-02-23T09:05:17.621Z,4.93
2023-02-23T09:07:45.341Z,5.20
2023-02-23T09:10:14.407Z,3.70
2023-02-23T09:12:41.360Z,5.85
2023-02-23T09:15:09.128Z,4.25
2023-02-23T09:17:35.913Z,5.07
2023-02-23T09:20:03.044Z,6.55
2023-02-23T09:22:29.838Z,5.32
2023-02-23T09:24:56.632Z,6.32
2023-02-23T09:27:23.425Z,7.32
2023-02-23T09:29:50.270Z,4.60
2023-02-23T09:32:17.229Z,5.47
2023-02-23T09:34:44.118Z,5.95
2023-02-23T09:37:10.865Z,9.95
2023-02-23T09:39:38.917Z,3.83
2023-02-23T09:42:30.190Z,4.90
2023-02-23T09:47:32.831Z,8.48
2023-02-23T09:50:03.904Z,3.03
2023-02-23T09:52:39.276Z,3.67
2023-02-23T09:55:06.886Z,6.38
2023-02-23T09:57:45.017Z,4.05
2023-02-23T10:00:29.913Z,7.95
2023-02-23T10:02:59.541Z,4.22
2023-02-23T10:05:31.760Z,5.47
2023-02-23T10:08:07.565Z,3.85
2023-02-23T10:10:40.508Z,3.72
2023-02-23T10:13:26.371Z,4.25
2023-02-23T10:15:57.793Z,6.15
2023-02-23T10:18:46.503Z,7.32
2023-02-23T10:21:17.289Z,8.57
2023-02-23T10:24:04.251Z,4.83
2023-02-23T10:26:46.395Z,7.07
2023-02-23T10:29:23.537Z,2.75
2023-02-23T10:31:57.496Z,2.55
2023-02-23T10:34:25.527Z,4.05
2023-02-23T10:36:56.396Z,5.40
2023-02-23T10:41:50.258Z,7.57
2023-02-23T10:44:22.972Z,2.72
2023-02-23T10:46:55.744Z,7.60
2023-02-23T10:49:26.440Z,3.67
2023-02-23T10:51:58.253Z,5.10
2023-02-23T10:54:48.093Z,6.72
2023-02-23T10:57:32.510Z,5.30
2023-02-23T11:00:10.884Z,6.22
2023-02-23T11:02:37.871Z,1.98
2023-02-23T11:05:06.688Z,5.28
2023-02-23T11:07:34.538Z,3.72
2023-02-23T11:10:27.629Z,2.08
2023-02-23T11:12:54.409Z,4.50
2023-02-23T11:15:32.053Z,5.40
2023-02-23T11:18:06.156Z,3.00
2023-02-23T11:20:37.056Z,1.00
2023-02-23T11:25:43.423Z,8.18
2023-02-23T11:28:21.552Z,2.17
2023-02-23T11:30:48.953Z,4.43
2023-02-23T11:33:18.940Z,5.55
2023-02-23T11:35:46.677Z,3.08
2023-02-23T11:38:25.695Z,3.95
2023-02-23T11:41:04.334Z,5.28
2023-02-23T11:43:31.472Z,3.42
2023-02-23T11:46:00.222Z,3.67
2023-02-23T11:48:35.380Z,1.17
2023-02-23T11:51:02.392Z,4.00
2023-02-23T11:53:32.883Z,7.13
2023-02-23T11:56:02.833Z,3.90
2023-02-23T11:58:36.701Z,4.53
2023-02-23T12:01:12.199Z,1.98
2023-02-23T12:03:45.769Z,2.22
2023-02-23T12:06:12.717Z,3.80
2023-02-23T12:08:46.812Z,2.58
2023-02-23T12:11:20.829Z,4.88
2023-02-23T12:13:51.290Z,5.72
2023-02-23T12:16:23.850Z,1.80
2023-02-23T12:18:56.864Z,1.65
2023-02-23T12:21:25.349Z,4.88
2023-02-23T12:24:23.553Z,4.20
2023-02-23T12:27:06.363Z,1.70
2023-02-23T12:29:35.824Z,2.85
2023-02-23T12:32:39.100Z,4.60
2023-02-23T12:35:16.912Z,2.13
2023-02-23T12:37:48.553Z,4.90
2023-02-23T12:40:28.604Z,1.25
2023-02-23T12:43:12.496Z,4.47
2023-02-23T12:45:46.501Z,4.57
2023-02-23T12:49:14.110Z,3.15
2023-02-23T12:52:08.537Z,3.20
2023-02-23T12:54:35.864Z,8.20
2023-02-23T12:57:29.712Z,3.33
2023-02-23T13:00:02.539Z,6.55
2023-02-23T13:02:34.469Z,4.90
2023-02-23T13:05:02.594Z,2.70
2023-02-23T13:07:59.208Z,3.22
2023-02-23T13:10:50.344Z,2.60
2023-02-23T13:13:20.798Z,3.05
2023-02-23T13:15:50.353Z,5.32
2023-02-23T13:18:43.567Z,1.27
2023-02-23T13:21:13.343Z,4.28
2023-02-23T13:24:07.485Z,3.17
2023-02-23T13:26:36.925Z,3.33
2023-02-23T13:29:07.676Z,1.95
2023-02-23T13:31:36.943Z,2.83
2023-02-23T13:34:06.856Z,3.40
2023-02-23T13:36:34.940Z,3.63
2023-02-23T13:39:29.051Z,2.40
2023-02-23T13:42:01.788Z,2.15
2023-02-23T13:44:34.599Z,3.90
2023-02-23T13:47:38.719Z,1.55
2023-02-23T13:50:16.496Z,0.57
2023-02-23T13:52:45.094Z,2.05
2023-02-23T13:55:48.213Z,2.53
2023-02-23T13:58:32.541Z,1.00
2023-02-23T14:01:16.218Z,2.75
2023-02-23T14:03:52.618Z,1.88
2023-02-23T14:06:20.184Z,1.50
2023-02-23T14:08:53.008Z,0.55
2023-02-23T14:11:42.582Z,3.40
2023-02-23T14:14:17.099Z,1.70
2023-02-23T14:16:46.670Z,1.75
2023-02-23T14:19:36.293Z,4.85
2023-02-23T14:22:06.330Z,1.48
2023-02-23T14:24:33.212Z,2.72
2023-02-23T14:27:41.472Z,1.52
2023-02-23T14:30:11.538Z,2.47
2023-02-23T14:32:43.398Z,3.03
2023-02-23T14:35:36.613Z,3.42
2023-02-23T14:38:35.922Z,1.05
2023-02-23T14:41:12.038Z,1.67
2023-02-23T14:43:38.957Z,3.15
2023-02-23T14:46:13.409Z,3.58
2023-02-23T14:48:44.607Z,0.82
2023-02-23T14:51:37.349Z,1.80
2023-02-23T14:54:15.879Z,0.85
2023-02-23T14:56:47.624Z,3.30
2023-02-23T14:59:36.950Z,0.90
2023-02-23T15:02:12.313Z,1.10
2023-02-23T15:04:39.794Z,1.73
2023-02-23T15:07:07.416Z,2.22
2023-02-23T15:09:45.382Z,2.22
2023-02-23T15:12:27.197Z,2.17
2023-02-23T15:15:00.518Z,3.28
2023-02-23T15:17:31.955Z,3.40
2023-02-23T15:20:16.159Z,2.00
2023-02-23T15:22:47.988Z,4.75
2023-02-23T15:25:24.125Z,2.30
2023-02-23T15:27:52.005Z,1.85
2023-02-23T15:30:31.120Z,3.85
2023-02-23T15:33:06.897Z,2.75
2023-02-23T15:35:47.520Z,2.72
2023-02-23T15:38:42.455Z,3.75
2023-02-23T15:41:36.158Z,0.77
2023-02-23T15:44:15.452Z,1.25
2023-02-23T15:46:42.859Z,1.17
2023-02-23T15:49:14.751Z,1.30
2023-02-23T15:51:50.156Z,4.88
2023-02-23T15:55:00.325Z,3.55
2023-02-23T15:57:33.577Z,2.40
2023-02-23T16:00:11.993Z,5.25
2023-02-23T16:02:44.907Z,3.13
2023-02-23T16:05:22.217Z,1.27
2023-02-23T16:07:54.720Z,1.67
2023-02-23T16:10:23.822Z,3.17
2023-02-23T16:12:53.330Z,2.67
2023-02-23T16:15:29.703Z,3.13
2023-02-23T16:17:58.868Z,1.13
2023-02-23T16:20:38.748Z,5.65
2023-02-23T16:23:08.086Z,2.13
2023-02-23T16:25:35.391Z,2.63
2023-02-23T16:28:22.017Z,1.95
2023-02-23T16:30:59.415Z,2.67
2023-02-23T16:33:52.289Z,2.33
2023-02-23T16:36:24.905Z,2.78
2023-02-23T16:39:02.615Z,0.73
2023-02-23T16:41:32.224Z,2.47
2023-02-23T16:44:01.423Z,3.83
2023-02-23T16:47:03.012Z,3.63
2023-02-23T16:49:30.424Z,1.30
2023-02-23T16:51:58.434Z,2.25
2023-02-23T16:54:25.846Z,2.97
2023-02-23T16:56:55.905Z,2.85
2023-02-23T16:59:23.739Z,1.87
2023-02-23T17:01:51.007Z,1.10
2023-02-23T17:04:19.901Z,3.08
2023-02-23T17:06:55.770Z,1.65
2023-02-23T17:09:24.393Z,1.48
2023-02-23T17:11:51.258Z,1.10
2023-02-23T17:14:27.374Z,1.75
2023-02-23T17:16:54.412Z,1.55
2023-02-23T17:19:22.962Z,0.55
2023-02-23T17:21:51.584Z,1.37
2023-02-23T17:24:19.206Z,1.65
2023-02-23T17:26:46.162Z,2.95
2023-02-23T17:29:13.097Z,1.98
2023-02-23T17:31:40.673Z,1.02
2023-02-23T17:34:07.678Z,3.03
2023-02-23T17:36:34.551Z,0.73
2023-02-23T17:39:02.118Z,0.50
2023-02-23T17:41:29.098Z,1.25
2023-02-23T17:43:55.943Z,1.15
2023-02-23T17:46:24.192Z,0.90
2023-02-23T17:48:51.265Z,0.85
2023-02-23T17:51:20.152Z,1.75
2023-02-23T17:53:47.614Z,1.38
2023-02-23T17:56:16.194Z,1.83
2023-02-23T17:58:43.041Z,0.30
2023-02-23T18:01:09.988Z,0.40
2023-02-23T18:03:37.816Z,1.88
2023-02-23T18:06:11.032Z,2.95
2023-02-23T18:08:39.390Z,0.30
2023-02-23T18:11:06.478Z,1.45
2023-02-23T18:13:33.957Z,0.95
2023-02-23T18:16:04.532Z,1.20
2023-02-23T18:18:31.444Z,1.40
2023-02-23T18:20:59.686Z,0.70
2023-02-23T18:23:36.061Z,0.40
2023-02-23T18:26:20.413Z,0.57
2023-02-23T18:28:47.936Z,0.55
2023-02-23T18:31:21.058Z,0.82
2023-02-23T18:33:54.577Z,1.90
2023-02-23T18:36:24.471Z,1.02
2023-02-23T18:38:51.460Z,1.38
2023-02-23T18:41:19.294Z,2.30
2023-02-23T18:43:46.829Z,1.52
2023-02-23T18:46:14.958Z,1.15
2023-02-23T18:48:43.116Z,0.75
2023-02-23T18:51:14.347Z,1.23
2023-02-23T18:56:10.662Z,1.95
2023-02-23T18:58:37.658Z,1.00
2023-02-23T19:01:20.742Z,2.38
2023-02-23T19:03:48.964Z,0.60
2023-02-23T19:06:16.615Z,0.50
2023-02-23T19:08:44.358Z,1.05
2023-02-23T19:11:12.297Z,0.40
2023-02-23T19:13:39.250Z,0.85
2023-02-23T19:16:09.881Z,0.45
2023-02-23T19:18:36.832Z,0.52
2023-02-23T19:21:05.040Z,0.65
2023-02-23T19:23:31.987Z,0.85
2023-02-23T19:26:02.463Z,1.10
2023-02-23T19:28:29.444Z,1.20
2023-02-23T19:31:16.212Z,0.50
2023-02-23T19:33:43.533Z,0.90
2023-02-23T19:36:13.047Z,0.30
2023-02-23T19:38:40.026Z,1.17
2023-02-23T19:41:07.368Z,0.35
2023-02-23T19:43:34.350Z,0.52
2023-02-23T19:46:09.644Z,0.40
2023-02-23T19:48:36.957Z,0.60
2023-02-23T19:51:04.388Z,2.35
2023-02-23T19:53:32.126Z,0.57
2023-02-23T19:56:11.053Z,1.27
2023-02-23T19:58:38.644Z,2.03
2023-02-23T20:01:10.128Z,1.13
2023-02-23T20:03:42.310Z,0.57
2023-02-23T20:06:14.152Z,1.08
2023-02-23T20:08:45.368Z,1.00
2023-02-23T20:11:12.545Z,0.93
2023-02-23T20:13:39.551Z,0.35
2023-02-23T20:16:09.281Z,0.55
2023-02-23T20:18:38.594Z,0.60
2023-02-23T20:21:14.724Z,0.98
2023-02-23T20:23:42.883Z,0.75
2023-02-23T20:26:13.023Z,1.38
2023-02-23T20:28:40.442Z,2.13
2023-02-23T20:31:21.162Z,0.50
2023-02-23T20:36:19.226Z,2.60
2023-02-23T20:38:46.160Z,1.52
2023-02-23T20:41:13.403Z,3.50
2023-02-23T20:43:40.287Z,2.58
2023-02-23T20:46:07.415Z,0.70
2023-02-23T20:48:35.278Z,2.20
2023-02-23T20:51:02.327Z,1.92
2023-02-23T20:53:30.386Z,2.55
2023-02-23T20:55:57.308Z,2.63
2023-02-23T20:58:25.409Z,1.75
2023-02-23T21:00:54.843Z,4.55
2023-02-23T21:03:21.921Z,1.33
2023-02-23T21:05:49.118Z,2.00
2023-02-23T21:08:15.963Z,2.45
2023-02-23T21:10:43.830Z,1.00
2023-02-23T21:13:11.186Z,1.55
2023-02-23T21:15:39.618Z,1.67
2023-02-23T21:18:07.851Z,1.75
2023-02-23T21:20:35.685Z,2.13
2023-02-23T21:23:04.340Z,2.55
2023-02-23T21:25:31.363Z,3.00
2023-02-23T21:28:01.993Z,4.22
2023-02-23T21:30:29.680Z,3.30
2023-02-23T21:35:25.135Z,3.33
2023-02-23T21:37:53.036Z,1.92
2023-02-23T21:40:21.235Z,2.28
2023-02-23T21:42:48.607Z,2.40
2023-02-23T21:45:16.532Z,2.75
2023-02-23T21:47:44.807Z,2.40
2023-02-23T21:50:15.124Z,0.60
2023-02-23T21:52:43.849Z,2.20
2023-02-23T21:55:21.430Z,1.50
2023-02-23T21:57:49.098Z,2.50
2023-02-23T22:00:16.456Z,2.63
2023-02-23T22:02:46.711Z,3.25
2023-02-23T22:05:15.465Z,1.23
2023-02-23T22:07:47.089Z,1.67
2023-02-23T22:10:14.002Z,2.53
2023-02-23T22:12:40.811Z,1.10
2023-02-23T22:15:09.239Z,1.08
2023-02-23T22:17:36.608Z,1.65
2023-02-23T22:20:05.619Z,6.00
2023-02-23T22:22:36.347Z,3.03
2023-02-23T22:25:04.965Z,2.80
2023-02-23T22:27:31.979Z,1.10
2023-02-23T22:30:03.577Z,1.75
2023-02-23T22:32:33.532Z,2.20
2023-02-23T22:35:01.158Z,2.97
2023-02-23T22:37:32.324Z,1.98
2023-02-23T22:40:11.684Z,1.83
2023-02-23T22:42:38.712Z,0.90
2023-02-23T22:45:06.257Z,1.85
2023-02-23T22:47:36.289Z,2.45
2023-02-23T22:50:03.295Z,0.60
2023-02-23T22:52:30.159Z,1.80
2023-02-23T22:54:57.046Z,0.57
2023-02-23T22:57:23.891Z,1.58
2023-02-23T23:00:00.613Z,3.13
2023-02-23T23:02:32.472Z,2.58
2023-02-23T23:04:59.853Z,1.90
2023-02-23T23:07:26.647Z,1.63
2023-02-23T23:09:54.452Z,1.75
2023-02-23T23:12:21.253Z,1.20
2023-02-23T23:14:48.217Z,2.35
2023-02-23T23:17:15.565Z,2.05
2023-02-23T23:19:42.590Z,0.70
2023-02-23T23:22:14.620Z,1.67
2023-02-23T23:24:46.210Z,1.35
2023-02-23T23:27:19.924Z,0.75
2023-02-23T23:29:48.158Z,0.65
2023-02-23T23:32:17.404Z,0.73
2023-02-23T23:34:48.971Z,0.52
2023-02-23T23:37:19.842Z,2.20
2023-02-23T23:39:46.708Z,2.72
2023-02-23T23:42:13.624Z,2.10
2023-02-23T23:44:40.495Z,2.17
2023-02-23T23:47:08.154Z,3.03
2023-02-23T23:49:40.210Z,1.85
2023-02-23T23:52:07.567Z,1.83
2023-02-23T23:54:42.609Z,3.60
2023-02-23T23:57:11.888Z,1.60
2023-02-23T23:59:45.965Z,2.90
